sensor_id;sensor_type;location;lat;lon;timestamp;P1;durP1;ratioP1;P2;durP2;ratioP2
46561;SDS011;32289;42.688;23.330;2022-09-27T00:02:39;6.05;;;3.20;;
46561;SDS011;32289;42.688;23.330;2022-09-27T00:06:24;5.93;;;3.13;;
46561;SDS011;32289;42.688;23.330;2022-09-27T00:10:09;5.03;;;2.88;;
46561;SDS011;32289;42.688;23.330;2022-09-27T00:13:50;6.03;;;2.90;;
46561;SDS011;32289;42.688;23.330;2022-09-27T00:17:31;6.63;;;2.60;;
46561;SDS011;32289;42.688;23.330;2022-09-27T00:21:12;5.28;;;2.88;;
46561;SDS011;32289;42.688;23.330;2022-09-27T00:24:53;5.05;;;2.67;;
46561;SDS011;32289;42.688;23.330;2022-09-27T00:28:34;7.53;;;3.88;;
46561;SDS011;32289;42.688;23.330;2022-09-27T00:32:15;7.25;;;3.00;;
46561;SDS011;32289;42.688;23.330;2022-09-27T00:36:02;7.32;;;3.55;;
46561;SDS011;32289;42.688;23.330;2022-09-27T00:39:44;6.15;;;3.13;;
46561;SDS011;32289;42.688;23.330;2022-09-27T00:43:25;5.32;;;3.20;;
46561;SDS011;32289;42.688;23.330;2022-09-27T00:51:04;5.57;;;3.28;;
46561;SDS011;32289;42.688;23.330;2022-09-27T00:54:49;9.68;;;3.55;;
46561;SDS011;32289;42.688;23.330;2022-09-27T00:58:34;6.80;;;3.15;;
46561;SDS011;32289;42.688;23.330;2022-09-27T01:02:17;6.95;;;3.78;;
46561;SDS011;32289;42.688;23.330;2022-09-27T01:05:58;5.38;;;3.33;;
46561;SDS011;32289;42.688;23.330;2022-09-27T01:09:40;5.18;;;3.40;;
46561;SDS011;32289;42.688;23.330;2022-09-27T01:13:29;7.35;;;3.65;;
46561;SDS011;32289;42.688;23.330;2022-09-27T01:45:13;6.65;;;3.22;;
46561;SDS011;32289;42.688;23.330;2022-09-27T01:48:54;6.03;;;2.70;;
46561;SDS011;32289;42.688;23.330;2022-09-27T01:52:50;4.55;;;2.60;;
46561;SDS011;32289;42.688;23.330;2022-09-27T01:56:46;8.93;;;3.40;;
46561;SDS011;32289;42.688;23.330;2022-09-27T02:00:31;5.03;;;2.63;;
46561;SDS011;32289;42.688;23.330;2022-09-27T02:04:14;4.45;;;2.42;;
46561;SDS011;32289;42.688;23.330;2022-09-27T02:08:01;5.22;;;2.65;;
46561;SDS011;32289;42.688;23.330;2022-09-27T02:11:47;4.43;;;2.95;;
46561;SDS011;32289;42.688;23.330;2022-09-27T02:15:38;6.95;;;3.05;;
46561;SDS011;32289;42.688;23.330;2022-09-27T02:19:37;5.30;;;3.15;;
46561;SDS011;32289;42.688;23.330;2022-09-27T02:23:51;5.05;;;2.55;;
46561;SDS011;32289;42.688;23.330;2022-09-27T02:31:54;7.82;;;3.20;;
46561;SDS011;32289;42.688;23.330;2022-09-27T02:35:35;5.63;;;3.22;;
46561;SDS011;32289;42.688;23.330;2022-09-27T02:39:16;7.13;;;3.20;;
46561;SDS011;32289;42.688;23.330;2022-09-27T02:42:57;8.13;;;3.50;;
46561;SDS011;32289;42.688;23.330;2022-09-27T02:54:23;6.40;;;3.47;;
46561;SDS011;32289;42.688;23.330;2022-09-27T03:06:32;6.65;;;3.15;;
46561;SDS011;32289;42.688;23.330;2022-09-27T03:10:18;7.10;;;3.10;;
46561;SDS011;32289;42.688;23.330;2022-09-27T03:14:00;7.40;;;3.67;;
46561;SDS011;32289;42.688;23.330;2022-09-27T03:17:44;8.20;;;3.83;;
46561;SDS011;32289;42.688;23.330;2022-09-27T03:21:25;5.07;;;2.95;;
46561;SDS011;32289;42.688;23.330;2022-09-27T03:25:06;7.32;;;4.03;;
46561;SDS011;32289;42.688;23.330;2022-09-27T03:28:48;6.20;;;3.05;;
46561;SDS011;32289;42.688;23.330;2022-09-27T03:32:28;6.15;;;3.42;;
46561;SDS011;32289;42.688;23.330;2022-09-27T03:36:10;6.65;;;3.70;;
46561;SDS011;32289;42.688;23.330;2022-09-27T03:39:51;7.72;;;3.60;;
46561;SDS011;32289;42.688;23.330;2022-09-27T03:43:31;5.10;;;3.55;;
46561;SDS011;32289;42.688;23.330;2022-09-27T03:47:12;6.70;;;3.58;;
46561;SDS011;32289;42.688;23.330;2022-09-27T03:50:53;8.93;;;4.07;;
46561;SDS011;32289;42.688;23.330;2022-09-27T03:54:33;8.93;;;3.85;;
46561;SDS011;32289;42.688;23.330;2022-09-27T03:58:14;7.85;;;4.15;;
46561;SDS011;32289;42.688;23.330;2022-09-27T04:01:55;7.20;;;3.50;;
46561;SDS011;32289;42.688;23.330;2022-09-27T04:05:35;6.55;;;3.67;;
46561;SDS011;32289;42.688;23.330;2022-09-27T04:09:16;9.43;;;4.35;;
46561;SDS011;32289;42.688;23.330;2022-09-27T04:12:57;5.03;;;3.20;;
46561;SDS011;32289;42.688;23.330;2022-09-27T04:16:38;7.32;;;3.78;;
46561;SDS011;32289;42.688;23.330;2022-09-27T04:20:21;11.20;;;5.13;;
46561;SDS011;32289;42.688;23.330;2022-09-27T04:24:02;8.52;;;4.45;;
46561;SDS011;32289;42.688;23.330;2022-09-27T04:27:44;8.68;;;4.32;;
46561;SDS011;32289;42.688;23.330;2022-09-27T04:31:26;6.35;;;4.03;;
46561;SDS011;32289;42.688;23.330;2022-09-27T04:35:07;8.00;;;3.97;;
46561;SDS011;32289;42.688;23.330;2022-09-27T04:39:07;10.55;;;4.20;;
46561;SDS011;32289;42.688;23.330;2022-09-27T04:42:52;7.30;;;4.47;;
46561;SDS011;32289;42.688;23.330;2022-09-27T04:46:33;7.00;;;4.15;;
46561;SDS011;32289;42.688;23.330;2022-09-27T04:50:14;8.30;;;4.15;;
46561;SDS011;32289;42.688;23.330;2022-09-27T04:53:56;8.65;;;5.10;;
46561;SDS011;32289;42.688;23.330;2022-09-27T04:57:38;8.38;;;4.53;;
46561;SDS011;32289;42.688;23.330;2022-09-27T05:01:19;9.32;;;4.80;;
46561;SDS011;32289;42.688;23.330;2022-09-27T05:05:00;8.57;;;4.10;;
46561;SDS011;32289;42.688;23.330;2022-09-27T05:08:40;8.88;;;4.88;;
46561;SDS011;32289;42.688;23.330;2022-09-27T05:12:21;9.25;;;4.82;;
46561;SDS011;32289;42.688;23.330;2022-09-27T05:16:02;8.10;;;4.38;;
46561;SDS011;32289;42.688;23.330;2022-09-27T05:19:44;10.38;;;5.07;;
46561;SDS011;32289;42.688;23.330;2022-09-27T05:23:25;10.80;;;5.10;;
46561;SDS011;32289;42.688;23.330;2022-09-27T05:27:06;10.18;;;4.07;;
46561;SDS011;32289;42.688;23.330;2022-09-27T05:30:51;7.78;;;4.30;;
46561;SDS011;32289;42.688;23.330;2022-09-27T05:34:32;8.15;;;4.80;;
46561;SDS011;32289;42.688;23.330;2022-09-27T05:38:13;8.52;;;4.78;;
46561;SDS011;32289;42.688;23.330;2022-09-27T05:41:54;12.95;;;5.43;;
46561;SDS011;32289;42.688;23.330;2022-09-27T05:45:35;9.13;;;3.88;;
46561;SDS011;32289;42.688;23.330;2022-09-27T05:49:16;9.38;;;4.78;;
46561;SDS011;32289;42.688;23.330;2022-09-27T05:52:56;7.05;;;4.30;;
46561;SDS011;32289;42.688;23.330;2022-09-27T05:56:37;8.68;;;3.40;;
46561;SDS011;32289;42.688;23.330;2022-09-27T06:00:18;8.52;;;4.03;;
46561;SDS011;32289;42.688;23.330;2022-09-27T06:03:59;9.13;;;4.85;;
46561;SDS011;32289;42.688;23.330;2022-09-27T06:07:40;7.03;;;4.30;;
46561;SDS011;32289;42.688;23.330;2022-09-27T06:11:21;8.63;;;4.80;;
46561;SDS011;32289;42.688;23.330;2022-09-27T06:15:02;11.45;;;5.10;;
46561;SDS011;32289;42.688;23.330;2022-09-27T06:18:43;8.65;;;5.70;;
46561;SDS011;32289;42.688;23.330;2022-09-27T06:22:24;10.27;;;5.53;;
46561;SDS011;32289;42.688;23.330;2022-09-27T06:26:05;12.75;;;6.15;;
46561;SDS011;32289;42.688;23.330;2022-09-27T06:29:47;10.68;;;5.47;;
46561;SDS011;32289;42.688;23.330;2022-09-27T06:33:27;8.32;;;5.43;;
46561;SDS011;32289;42.688;23.330;2022-09-27T06:37:08;12.52;;;5.88;;
46561;SDS011;32289;42.688;23.330;2022-09-27T06:40:49;11.38;;;6.57;;
46561;SDS011;32289;42.688;23.330;2022-09-27T06:44:30;11.00;;;5.72;;
46561;SDS011;32289;42.688;23.330;2022-09-27T06:48:11;10.80;;;5.95;;
46561;SDS011;32289;42.688;23.330;2022-09-27T06:51:53;14.07;;;7.88;;
46561;SDS011;32289;42.688;23.330;2022-09-27T06:55:34;9.60;;;5.85;;
46561;SDS011;32289;42.688;23.330;2022-09-27T06:59:15;11.45;;;6.10;;
46561;SDS011;32289;42.688;23.330;2022-09-27T07:03:15;13.47;;;5.33;;
46561;SDS011;32289;42.688;23.330;2022-09-27T07:06:55;8.90;;;5.00;;
46561;SDS011;32289;42.688;23.330;2022-09-27T07:10:37;13.85;;;5.30;;
46561;SDS011;32289;42.688;23.330;2022-09-27T07:14:19;9.38;;;6.20;;
46561;SDS011;32289;42.688;23.330;2022-09-27T07:18:00;9.68;;;5.30;;
46561;SDS011;32289;42.688;23.330;2022-09-27T07:21:42;10.82;;;5.65;;
46561;SDS011;32289;42.688;23.330;2022-09-27T07:25:24;7.47;;;4.90;;
46561;SDS011;32289;42.688;23.330;2022-09-27T07:29:05;14.77;;;6.05;;
46561;SDS011;32289;42.688;23.330;2022-09-27T07:32:46;12.80;;;7.35;;
46561;SDS011;32289;42.688;23.330;2022-09-27T07:36:27;9.60;;;6.18;;
46561;SDS011;32289;42.688;23.330;2022-09-27T07:40:09;13.02;;;7.03;;
46561;SDS011;32289;42.688;23.330;2022-09-27T07:43:49;13.82;;;7.70;;
46561;SDS011;32289;42.688;23.330;2022-09-27T07:47:31;14.00;;;7.40;;
46561;SDS011;32289;42.688;23.330;2022-09-27T07:51:12;10.30;;;6.05;;
46561;SDS011;32289;42.688;23.330;2022-09-27T07:54:53;9.65;;;6.10;;
46561;SDS011;32289;42.688;23.330;2022-09-27T07:58:34;7.90;;;5.45;;
46561;SDS011;32289;42.688;23.330;2022-09-27T08:02:15;13.50;;;6.20;;
46561;SDS011;32289;42.688;23.330;2022-09-27T08:05:56;9.40;;;5.53;;
46561;SDS011;32289;42.688;23.330;2022-09-27T08:09:40;9.57;;;5.63;;
46561;SDS011;32289;42.688;23.330;2022-09-27T08:13:21;15.35;;;6.60;;
46561;SDS011;32289;42.688;23.330;2022-09-27T08:17:02;15.55;;;6.13;;
46561;SDS011;32289;42.688;23.330;2022-09-27T08:20:43;15.50;;;7.18;;
46561;SDS011;32289;42.688;23.330;2022-09-27T08:24:24;11.77;;;6.32;;
46561;SDS011;32289;42.688;23.330;2022-09-27T08:28:05;12.73;;;6.22;;
46561;SDS011;32289;42.688;23.330;2022-09-27T08:31:51;12.35;;;7.03;;
46561;SDS011;32289;42.688;23.330;2022-09-27T08:35:34;12.80;;;6.78;;
46561;SDS011;32289;42.688;23.330;2022-09-27T08:39:15;13.38;;;6.05;;
46561;SDS011;32289;42.688;23.330;2022-09-27T08:43:00;14.38;;;6.50;;
46561;SDS011;32289;42.688;23.330;2022-09-27T08:47:11;10.82;;;5.78;;
46561;SDS011;32289;42.688;23.330;2022-09-27T08:50:56;9.95;;;6.10;;
46561;SDS011;32289;42.688;23.330;2022-09-27T08:54:37;16.05;;;7.63;;
46561;SDS011;32289;42.688;23.330;2022-09-27T09:02:03;11.85;;;6.28;;
46561;SDS011;32289;42.688;23.330;2022-09-27T09:05:56;16.08;;;7.72;;
46561;SDS011;32289;42.688;23.330;2022-09-27T09:10:26;14.50;;;7.15;;
46561;SDS011;32289;42.688;23.330;2022-09-27T09:33:40;8.52;;;5.47;;
46561;SDS011;32289;42.688;23.330;2022-09-27T09:37:41;9.10;;;5.18;;
46561;SDS011;32289;42.688;23.330;2022-09-27T09:41:33;8.25;;;4.95;;
46561;SDS011;32289;42.688;23.330;2022-09-27T09:45:32;9.32;;;4.28;;
46561;SDS011;32289;42.688;23.330;2022-09-27T09:49:36;8.00;;;4.93;;
46561;SDS011;32289;42.688;23.330;2022-09-27T10:01:12;8.38;;;4.45;;
46561;SDS011;32289;42.688;23.330;2022-09-27T10:05:01;6.75;;;4.28;;
46561;SDS011;32289;42.688;23.330;2022-09-27T10:08:46;8.75;;;4.30;;
46561;SDS011;32289;42.688;23.330;2022-09-27T10:12:27;7.55;;;4.85;;
46561;SDS011;32289;42.688;23.330;2022-09-27T10:16:09;8.77;;;5.35;;
46561;SDS011;32289;42.688;23.330;2022-09-27T10:19:54;8.07;;;3.95;;
46561;SDS011;32289;42.688;23.330;2022-09-27T10:23:42;7.57;;;4.28;;
46561;SDS011;32289;42.688;23.330;2022-09-27T10:27:50;11.57;;;4.75;;
46561;SDS011;32289;42.688;23.330;2022-09-27T10:31:34;7.35;;;4.60;;
46561;SDS011;32289;42.688;23.330;2022-09-27T10:35:42;9.15;;;6.53;;
46561;SDS011;32289;42.688;23.330;2022-09-27T10:39:24;7.57;;;5.03;;
46561;SDS011;32289;42.688;23.330;2022-09-27T10:43:26;7.40;;;4.65;;
46561;SDS011;32289;42.688;23.330;2022-09-27T10:47:08;7.18;;;4.28;;
46561;SDS011;32289;42.688;23.330;2022-09-27T10:50:56;11.68;;;5.40;;
46561;SDS011;32289;42.688;23.330;2022-09-27T10:54:40;6.35;;;3.80;;
46561;SDS011;32289;42.688;23.330;2022-09-27T11:06:47;6.68;;;3.08;;
46561;SDS011;32289;42.688;23.330;2022-09-27T11:10:18;7.43;;;3.03;;
46561;SDS011;32289;42.688;23.330;2022-09-27T11:14:18;5.50;;;3.13;;
46561;SDS011;32289;42.688;23.330;2022-09-27T11:18:09;7.00;;;5.22;;
46561;SDS011;32289;42.688;23.330;2022-09-27T11:38:07;3.70;;;3.05;;
46561;SDS011;32289;42.688;23.330;2022-09-27T11:57:32;4.57;;;2.90;;
46561;SDS011;32289;42.688;23.330;2022-09-27T12:09:28;5.38;;;2.75;;
46561;SDS011;32289;42.688;23.330;2022-09-27T12:13:13;3.58;;;2.47;;
46561;SDS011;32289;42.688;23.330;2022-09-27T12:16:58;3.33;;;2.47;;
46561;SDS011;32289;42.688;23.330;2022-09-27T12:20:43;4.50;;;2.90;;
46561;SDS011;32289;42.688;23.330;2022-09-27T12:24:24;6.75;;;4.32;;
46561;SDS011;32289;42.688;23.330;2022-09-27T12:28:21;5.25;;;3.38;;
46561;SDS011;32289;42.688;23.330;2022-09-27T12:32:17;7.43;;;2.72;;
46561;SDS011;32289;42.688;23.330;2022-09-27T12:36:05;3.10;;;1.90;;
46561;SDS011;32289;42.688;23.330;2022-09-27T12:43:44;7.90;;;4.63;;
46561;SDS011;32289;42.688;23.330;2022-09-27T12:51:09;4.57;;;2.13;;
46561;SDS011;32289;42.688;23.330;2022-09-27T12:55:03;4.55;;;2.90;;
46561;SDS011;32289;42.688;23.330;2022-09-27T13:03:00;3.60;;;2.58;;
46561;SDS011;32289;42.688;23.330;2022-09-27T13:10:59;11.90;;;7.00;;
46561;SDS011;32289;42.688;23.330;2022-09-27T13:26:20;4.78;;;2.40;;
46561;SDS011;32289;42.688;23.330;2022-09-27T13:34:13;2.85;;;2.10;;
46561;SDS011;32289;42.688;23.330;2022-09-27T13:38:27;4.00;;;1.80;;
46561;SDS011;32289;42.688;23.330;2022-09-27T13:42:17;3.83;;;2.17;;
46561;SDS011;32289;42.688;23.330;2022-09-27T13:46:18;2.40;;;1.73;;
46561;SDS011;32289;42.688;23.330;2022-09-27T13:54:03;5.32;;;3.03;;
46561;SDS011;32289;42.688;23.330;2022-09-27T13:57:49;3.08;;;2.15;;
46561;SDS011;32289;42.688;23.330;2022-09-27T14:01:41;3.17;;;2.08;;
46561;SDS011;32289;42.688;23.330;2022-09-27T14:05:38;5.07;;;2.13;;
46561;SDS011;32289;42.688;23.330;2022-09-27T14:09:25;4.43;;;2.90;;
46561;SDS011;32289;42.688;23.330;2022-09-27T14:13:17;5.00;;;2.85;;
46561;SDS011;32289;42.688;23.330;2022-09-27T14:16:59;3.60;;;2.55;;
46561;SDS011;32289;42.688;23.330;2022-09-27T14:20:42;4.93;;;2.22;;
46561;SDS011;32289;42.688;23.330;2022-09-27T14:24:29;4.03;;;2.38;;
46561;SDS011;32289;42.688;23.330;2022-09-27T14:28:22;4.43;;;2.10;;
46561;SDS011;32289;42.688;23.330;2022-09-27T14:32:09;3.13;;;1.90;;
46561;SDS011;32289;42.688;23.330;2022-09-27T14:35:52;3.80;;;2.28;;
46561;SDS011;32289;42.688;23.330;2022-09-27T14:39:58;4.47;;;2.28;;
46561;SDS011;32289;42.688;23.330;2022-09-27T14:43:47;3.45;;;2.10;;
46561;SDS011;32289;42.688;23.330;2022-09-27T14:47:30;3.08;;;1.88;;
46561;SDS011;32289;42.688;23.330;2022-09-27T14:54:55;3.35;;;2.10;;
46561;SDS011;32289;42.688;23.330;2022-09-27T14:59:18;3.97;;;2.10;;
46561;SDS011;32289;42.688;23.330;2022-09-27T15:03:06;3.60;;;2.38;;
46561;SDS011;32289;42.688;23.330;2022-09-27T15:06:53;3.95;;;1.77;;
46561;SDS011;32289;42.688;23.330;2022-09-27T15:10:35;3.55;;;2.38;;
46561;SDS011;32289;42.688;23.330;2022-09-27T15:14:17;6.45;;;3.13;;
46561;SDS011;32289;42.688;23.330;2022-09-27T15:18:00;5.78;;;1.73;;
46561;SDS011;32289;42.688;23.330;2022-09-27T15:21:42;7.00;;;1.50;;
46561;SDS011;32289;42.688;23.330;2022-09-27T15:25:33;12.65;;;8.27;;
46561;SDS011;32289;42.688;23.330;2022-09-27T15:29:22;7.13;;;2.72;;
46561;SDS011;32289;42.688;23.330;2022-09-27T15:33:05;4.85;;;2.03;;
46561;SDS011;32289;42.688;23.330;2022-09-27T15:36:57;4.57;;;1.50;;
46561;SDS011;32289;42.688;23.330;2022-09-27T15:48:24;5.05;;;2.00;;
46561;SDS011;32289;42.688;23.330;2022-09-27T15:52:06;1.70;;;1.13;;
46561;SDS011;32289;42.688;23.330;2022-09-27T15:56:09;4.20;;;1.00;;
46561;SDS011;32289;42.688;23.330;2022-09-27T15:59:52;4.88;;;1.77;;
46561;SDS011;32289;42.688;23.330;2022-09-27T16:03:33;9.40;;;2.80;;
46561;SDS011;32289;42.688;23.330;2022-09-27T16:07:14;3.90;;;1.58;;
46561;SDS011;32289;42.688;23.330;2022-09-27T16:10:56;9.70;;;4.10;;
46561;SDS011;32289;42.688;23.330;2022-09-27T16:14:37;2.97;;;1.42;;
46561;SDS011;32289;42.688;23.330;2022-09-27T16:18:18;3.83;;;1.90;;
46561;SDS011;32289;42.688;23.330;2022-09-27T16:21:59;5.30;;;2.03;;
46561;SDS011;32289;42.688;23.330;2022-09-27T16:25:42;9.80;;;2.67;;
46561;SDS011;32289;42.688;23.330;2022-09-27T16:29:23;4.22;;;1.60;;
46561;SDS011;32289;42.688;23.330;2022-09-27T16:33:04;7.25;;;3.92;;
46561;SDS011;32289;42.688;23.330;2022-09-27T16:36:44;9.38;;;3.83;;
46561;SDS011;32289;42.688;23.330;2022-09-27T16:40:25;5.45;;;2.13;;
46561;SDS011;32289;42.688;23.330;2022-09-27T16:44:08;5.80;;;2.40;;
46561;SDS011;32289;42.688;23.330;2022-09-27T16:47:50;4.90;;;1.70;;
46561;SDS011;32289;42.688;23.330;2022-09-27T16:51:30;4.70;;;2.03;;
46561;SDS011;32289;42.688;23.330;2022-09-27T16:55:31;6.10;;;2.20;;
46561;SDS011;32289;42.688;23.330;2022-09-27T16:59:11;4.22;;;2.20;;
46561;SDS011;32289;42.688;23.330;2022-09-27T17:02:53;5.95;;;3.08;;
46561;SDS011;32289;42.688;23.330;2022-09-27T17:06:33;4.10;;;1.42;;
46561;SDS011;32289;42.688;23.330;2022-09-27T17:10:14;7.30;;;1.70;;
46561;SDS011;32289;42.688;23.330;2022-09-27T17:13:56;4.75;;;1.77;;
46561;SDS011;32289;42.688;23.330;2022-09-27T17:17:37;3.60;;;1.25;;
46561;SDS011;32289;42.688;23.330;2022-09-27T17:21:18;5.97;;;1.80;;
46561;SDS011;32289;42.688;23.330;2022-09-27T17:25:01;4.85;;;1.90;;
46561;SDS011;32289;42.688;23.330;2022-09-27T17:28:42;4.68;;;1.73;;
46561;SDS011;32289;42.688;23.330;2022-09-27T17:32:24;7.10;;;2.92;;
46561;SDS011;32289;42.688;23.330;2022-09-27T17:36:07;7.60;;;3.63;;
46561;SDS011;32289;42.688;23.330;2022-09-27T17:39:59;5.03;;;2.42;;
46561;SDS011;32289;42.688;23.330;2022-09-27T17:43:41;7.28;;;3.35;;
46561;SDS011;32289;42.688;23.330;2022-09-27T17:47:28;7.13;;;3.13;;
46561;SDS011;32289;42.688;23.330;2022-09-27T17:51:28;11.27;;;3.92;;
46561;SDS011;32289;42.688;23.330;2022-09-27T17:55:10;5.93;;;3.00;;
46561;SDS011;32289;42.688;23.330;2022-09-27T17:58:54;9.23;;;3.20;;
46561;SDS011;32289;42.688;23.330;2022-09-27T18:02:35;7.40;;;3.85;;
46561;SDS011;32289;42.688;23.330;2022-09-27T18:06:16;11.57;;;4.57;;
46561;SDS011;32289;42.688;23.330;2022-09-27T18:09:56;9.57;;;4.07;;
46561;SDS011;32289;42.688;23.330;2022-09-27T18:13:38;10.93;;;4.25;;
46561;SDS011;32289;42.688;23.330;2022-09-27T18:17:20;11.68;;;4.03;;
46561;SDS011;32289;42.688;23.330;2022-09-27T18:21:02;10.63;;;4.88;;
46561;SDS011;32289;42.688;23.330;2022-09-27T18:24:43;8.43;;;4.95;;
46561;SDS011;32289;42.688;23.330;2022-09-27T18:28:25;11.20;;;4.75;;
46561;SDS011;32289;42.688;23.330;2022-09-27T18:32:07;11.80;;;5.47;;
46561;SDS011;32289;42.688;23.330;2022-09-27T18:35:48;14.80;;;6.50;;
46561;SDS011;32289;42.688;23.330;2022-09-27T18:39:29;12.30;;;4.90;;
46561;SDS011;32289;42.688;23.330;2022-09-27T18:43:10;8.30;;;4.88;;
46561;SDS011;32289;42.688;23.330;2022-09-27T18:46:51;9.35;;;4.60;;
46561;SDS011;32289;42.688;23.330;2022-09-27T18:50:35;7.78;;;3.80;;
46561;SDS011;32289;42.688;23.330;2022-09-27T18:54:20;7.95;;;4.53;;
46561;SDS011;32289;42.688;23.330;2022-09-27T18:58:01;7.85;;;4.35;;
46561;SDS011;32289;42.688;23.330;2022-09-27T19:01:42;12.10;;;5.03;;
46561;SDS011;32289;42.688;23.330;2022-09-27T19:05:26;6.85;;;3.65;;
46561;SDS011;32289;42.688;23.330;2022-09-27T19:09:06;9.65;;;4.78;;
46561;SDS011;32289;42.688;23.330;2022-09-27T19:12:47;14.13;;;6.43;;
46561;SDS011;32289;42.688;23.330;2022-09-27T19:16:28;17.48;;;6.70;;
46561;SDS011;32289;42.688;23.330;2022-09-27T19:20:09;7.95;;;4.07;;
46561;SDS011;32289;42.688;23.330;2022-09-27T19:23:50;17.52;;;6.43;;
46561;SDS011;32289;42.688;23.330;2022-09-27T19:27:32;18.40;;;8.07;;
46561;SDS011;32289;42.688;23.330;2022-09-27T19:31:20;10.88;;;4.78;;
46561;SDS011;32289;42.688;23.330;2022-09-27T19:35:02;8.52;;;3.90;;
46561;SDS011;32289;42.688;23.330;2022-09-27T19:38:44;10.75;;;5.80;;
46561;SDS011;32289;42.688;23.330;2022-09-27T19:42:25;12.77;;;6.00;;
46561;SDS011;32289;42.688;23.330;2022-09-27T19:46:07;10.07;;;5.05;;
46561;SDS011;32289;42.688;23.330;2022-09-27T19:49:54;11.90;;;5.05;;
46561;SDS011;32289;42.688;23.330;2022-09-27T19:53:36;10.73;;;4.85;;
46561;SDS011;32289;42.688;23.330;2022-09-27T19:57:16;8.95;;;5.20;;
46561;SDS011;32289;42.688;23.330;2022-09-27T20:04:48;10.65;;;4.90;;
46561;SDS011;32289;42.688;23.330;2022-09-27T20:08:30;12.00;;;5.30;;
46561;SDS011;32289;42.688;23.330;2022-09-27T20:12:11;16.35;;;5.65;;
46561;SDS011;32289;42.688;23.330;2022-09-27T20:15:51;10.35;;;3.95;;
46561;SDS011;32289;42.688;23.330;2022-09-27T20:19:35;7.28;;;4.00;;
46561;SDS011;32289;42.688;23.330;2022-09-27T20:23:17;10.32;;;4.55;;
46561;SDS011;32289;42.688;23.330;2022-09-27T20:26:59;9.80;;;4.40;;
46561;SDS011;32289;42.688;23.330;2022-09-27T20:30:39;8.88;;;4.38;;
46561;SDS011;32289;42.688;23.330;2022-09-27T20:34:20;9.73;;;4.43;;
46561;SDS011;32289;42.688;23.330;2022-09-27T20:38:01;6.63;;;3.75;;
46561;SDS011;32289;42.688;23.330;2022-09-27T20:41:42;10.63;;;3.83;;
46561;SDS011;32289;42.688;23.330;2022-09-27T20:45:25;8.10;;;3.65;;
46561;SDS011;32289;42.688;23.330;2022-09-27T20:49:06;11.20;;;4.55;;
46561;SDS011;32289;42.688;23.330;2022-09-27T20:52:48;7.45;;;3.80;;
46561;SDS011;32289;42.688;23.330;2022-09-27T20:56:30;7.72;;;3.55;;
46561;SDS011;32289;42.688;23.330;2022-09-27T21:00:20;7.45;;;4.22;;
46561;SDS011;32289;42.688;23.330;2022-09-27T21:04:02;10.10;;;4.53;;
46561;SDS011;32289;42.688;23.330;2022-09-27T21:07:43;6.72;;;3.95;;
46561;SDS011;32289;42.688;23.330;2022-09-27T21:11:24;10.45;;;4.97;;
46561;SDS011;32289;42.688;23.330;2022-09-27T21:15:06;9.32;;;5.05;;
46561;SDS011;32289;42.688;23.330;2022-09-27T21:18:48;10.43;;;5.22;;
46561;SDS011;32289;42.688;23.330;2022-09-27T21:22:31;11.35;;;4.38;;
46561;SDS011;32289;42.688;23.330;2022-09-27T21:26:17;8.18;;;3.88;;
46561;SDS011;32289;42.688;23.330;2022-09-27T21:29:59;7.00;;;3.72;;
46561;SDS011;32289;42.688;23.330;2022-09-27T21:33:41;8.80;;;4.40;;
46561;SDS011;32289;42.688;23.330;2022-09-27T21:37:25;8.55;;;4.10;;
46561;SDS011;32289;42.688;23.330;2022-09-27T21:41:08;8.95;;;4.50;;
46561;SDS011;32289;42.688;23.330;2022-09-27T21:44:51;9.13;;;4.75;;
46561;SDS011;32289;42.688;23.330;2022-09-27T21:48:32;8.18;;;4.97;;
46561;SDS011;32289;42.688;23.330;2022-09-27T21:52:14;8.70;;;5.10;;
46561;SDS011;32289;42.688;23.330;2022-09-27T21:55:55;12.10;;;6.03;;
46561;SDS011;32289;42.688;23.330;2022-09-27T21:59:36;11.73;;;4.80;;
46561;SDS011;32289;42.688;23.330;2022-09-27T22:03:16;14.05;;;6.38;;
46561;SDS011;32289;42.688;23.330;2022-09-27T22:06:59;10.90;;;5.45;;
46561;SDS011;32289;42.688;23.330;2022-09-27T22:10:40;12.93;;;5.40;;
46561;SDS011;32289;42.688;23.330;2022-09-27T22:14:23;11.55;;;5.75;;
46561;SDS011;32289;42.688;23.330;2022-09-27T22:18:04;11.45;;;5.30;;
46561;SDS011;32289;42.688;23.330;2022-09-27T22:21:45;10.98;;;5.25;;
46561;SDS011;32289;42.688;23.330;2022-09-27T22:25:27;11.77;;;5.75;;
46561;SDS011;32289;42.688;23.330;2022-09-27T22:29:09;8.98;;;5.22;;
46561;SDS011;32289;42.688;23.330;2022-09-27T22:32:50;14.52;;;6.07;;
46561;SDS011;32289;42.688;23.330;2022-09-27T22:36:31;12.68;;;5.60;;
46561;SDS011;32289;42.688;23.330;2022-09-27T22:40:13;14.38;;;5.80;;
46561;SDS011;32289;42.688;23.330;2022-09-27T22:43:54;8.27;;;5.30;;
46561;SDS011;32289;42.688;23.330;2022-09-27T22:47:35;13.48;;;6.05;;
46561;SDS011;32289;42.688;23.330;2022-09-27T22:51:16;12.02;;;5.80;;
46561;SDS011;32289;42.688;23.330;2022-09-27T22:54:57;9.55;;;5.20;;
46561;SDS011;32289;42.688;23.330;2022-09-27T22:58:38;10.60;;;6.13;;
46561;SDS011;32289;42.688;23.330;2022-09-27T23:02:18;9.77;;;5.55;;
46561;SDS011;32289;42.688;23.330;2022-09-27T23:06:00;17.52;;;5.38;;
46561;SDS011;32289;42.688;23.330;2022-09-27T23:09:43;16.45;;;5.57;;
46561;SDS011;32289;42.688;23.330;2022-09-27T23:13:28;12.40;;;6.13;;
46561;SDS011;32289;42.688;23.330;2022-09-27T23:17:10;11.95;;;4.97;;
46561;SDS011;32289;42.688;23.330;2022-09-27T23:20:50;11.55;;;5.75;;
46561;SDS011;32289;42.688;23.330;2022-09-27T23:24:31;13.60;;;5.95;;
46561;SDS011;32289;42.688;23.330;2022-09-27T23:28:12;11.88;;;6.30;;
46561;SDS011;32289;42.688;23.330;2022-09-27T23:31:52;14.65;;;7.00;;
46561;SDS011;32289;42.688;23.330;2022-09-27T23:35:33;12.32;;;6.18;;
46561;SDS011;32289;42.688;23.330;2022-09-27T23:39:14;18.17;;;5.50;;
46561;SDS011;32289;42.688;23.330;2022-09-27T23:42:55;13.13;;;5.55;;
46561;SDS011;32289;42.688;23.330;2022-09-27T23:46:40;12.63;;;6.32;;
46561;SDS011;32289;42.688;23.330;2022-09-27T23:50:21;11.23;;;5.25;;
46561;SDS011;32289;42.688;23.330;2022-09-27T23:54:03;13.57;;;5.57;;
46561;SDS011;32289;42.688;23.330;2022-09-27T23:57:43;10.63;;;5.18;;
